Terminal Aerodrome Forecast
Issued by NWS

Home | Current Version | Previous Version | Text Only | Print | Product List | Glossary Off
Versions: 1 2 3 4 5 6 7 8 9 10 11 12 13 14 15 16 17 18

000
FTUS43 KFGF 181100
TAFBJI
TAF
KBJI 181139Z 1812/1912 06006KT P6SM SKC
     FM181600 12010KT P6SM SCT250
     FM190000 12010KT P6SM BKN150
     FM190800 11009KT P6SM -RA BKN040=

USA.gov is the U.S. government's official web portal to all federal, state and local government web resources and services.